Wetterdaten: Woche 13.04.15 - 19.04.15 (KW16)
Datum Zeit Temp. A. Feuchte A. Luftdruck Regen Wind Richtung Taupunkt Windchill Windben
13.04.2015 00:00 10,3 C 73 % 1027,0 hPa 0,0 l/m 0,9 km/h N 5,5 C 10,3 C 3,2 km/h
13.04.2015 01:00 9,3 C 74 % 1026,8 hPa 0,0 l/m 0,0 km/h N 4,8 C 9,3 C 1,2 km/h
13.04.2015 02:00 7,7 C 77 % 1026,2 hPa 0,0 l/m 0,0 km/h N 3,9 C 7,7 C 0,0 km/h
13.04.2015 03:00 7,4 C 80 % 1025,8 hPa 0,0 l/m 0,1 km/h N 4,1 C 7,4 C 1,2 km/h
13.04.2015 04:00 7,2 C 81 % 1025,4 hPa 0,0 l/m 0,3 km/h N 4,1 C 7,2 C 3,6 km/h
13.04.2015 05:00 7,5 C 80 % 1025,0 hPa 0,0 l/m 0,6 km/h N 4,2 C 7,5 C 4,0 km/h
13.04.2015 06:00 7,7 C 80 % 1025,0 hPa 0,0 l/m 1,3 km/h N 4,4 C 7,7 C 5,2 km/h
13.04.2015 07:00 8,4 C 79 % 1025,0 hPa 0,0 l/m 0,1 km/h N 4,9 C 8,4 C 1,2 km/h
13.04.2015 08:00 12,1 C 73 % 1024,9 hPa 0,0 l/m 0,7 km/h N 7,3 C 12,1 C 4,8 km/h
13.04.2015 09:00 17,5 C 51 % 1024,7 hPa 0,0 l/m 10,2 km/h N 7,4 C 15,9 C 26,5 km/h
13.04.2015 10:00 18,2 C 51 % 1024,6 hPa 0,0 l/m 11,5 km/h N 7,7 C 16,1 C 27,3 km/h
13.04.2015 11:00 18,3 C 51 % 1024,7 hPa 0,0 l/m 16,9 km/h N 7,8 C 14,7 C 39,4 km/h
13.04.2015 12:00 18,7 C 49 % 1024,4 hPa 0,0 l/m 20,9 km/h N 7,9 C 14,4 C 46,7 km/h
13.04.2015 13:00 18,8 C 48 % 1024,1 hPa 0,0 l/m 18,4 km/h N 7,5 C 15,0 C 45,8 km/h
13.04.2015 14:00 19,0 C 44 % 1024,3 hPa 0,0 l/m 19,3 km/h N 6,3 C 15,1 C 49,9 km/h
13.04.2015 15:00 19,0 C 43 % 1024,2 hPa 0,0 l/m 16,9 km/h N 6,1 C 15,5 C 45,9 km/h
13.04.2015 16:00 17,3 C 51 % 1023,9 hPa 0,0 l/m 13,7 km/h N 6,8 C 14,4 C 40,3 km/h
13.04.2015 17:00 16,0 C 58 % 1024,4 hPa 0,0 l/m 8,9 km/h N 7,6 C 14,7 C 25,0 km/h
13.04.2015 18:00 14,5 C 62 % 1024,9 hPa 0,0 l/m 8,9 km/h N 7,3 C 13,2 C 24,1 km/h
13.04.2015 19:00 13,3 C 68 % 1025,0 hPa 0,0 l/m 3,2 km/h N 7,5 C 13,3 C 12,1 km/h
13.04.2015 20:00 13,0 C 66 % 1025,3 hPa 0,0 l/m 2,4 km/h N 6,7 C 13,0 C 8,9 km/h
13.04.2015 21:00 12,7 C 65 % 1025,8 hPa 0,0 l/m 3,2 km/h N 6,2 C 12,7 C 11,3 km/h
13.04.2015 22:00 12,1 C 59 % 1026,4 hPa 0,0 l/m 5,6 km/h N 4,3 C 12,1 C 18,5 km/h
13.04.2015 23:00 11,2 C 49 % 1027,2 hPa 0,0 l/m 5,6 km/h N 0,9 C 11,2 C 16,9 km/h
14.04.2015 00:00 10,6 C 47 % 1027,6 hPa 0,0 l/m 2,4 km/h N -0,4 C 10,6 C 11,3 km/h
14.04.2015 01:00 10,1 C 49 % 1028,2 hPa 0,0 l/m 3,2 km/h N -0,2 C 10,1 C 11,3 km/h
14.04.2015 02:00 9,4 C 49 % 1028,4 hPa 0,0 l/m 4,8 km/h N -0,9 C 9,4 C 15,3 km/h
14.04.2015 03:00 8,4 C 52 % 1028,5 hPa 0,0 l/m 1,6 km/h N -1,1 C 8,4 C 8,0 km/h
14.04.2015 04:00 7,0 C 56 % 1028,8 hPa 0,0 l/m 0,0 km/h N -1,3 C 7,0 C 5,6 km/h
14.04.2015 05:00 6,6 C 57 % 1028,9 hPa 0,0 l/m 0,0 km/h N -1,3 C 6,6 C 4,8 km/h
14.04.2015 06:00 6,4 C 58 % 1028,8 hPa 0,0 l/m 0,8 km/h N -1,3 C 6,4 C 6,4 km/h
14.04.2015 07:00 6,8 C 60 % 1029,1 hPa 0,0 l/m 0,8 km/h N -0,5 C 6,8 C 7,2 km/h
14.04.2015 08:00 8,5 C 56 % 1029,3 hPa 0,0 l/m 4,0 km/h N 0,1 C 8,5 C 12,9 km/h
14.04.2015 09:00 9,9 C 52 % 1029,1 hPa 0,0 l/m 4,8 km/h N 0,5 C 9,9 C 15,3 km/h
14.04.2015 10:00 11,1 C 50 % 1028,8 hPa 0,0 l/m 5,6 km/h N 1,0 C 11,2 C 13,7 km/h
14.04.2015 11:00 12,4 C 45 % 1028,3 hPa 0,0 l/m 7,2 km/h N 0,9 C 12,0 C 20,9 km/h
14.04.2015 12:00 13,4 C 44 % 1027,6 hPa 0,0 l/m 7,2 km/h N 1,2 C 12,9 C 20,1 km/h
14.04.2015 13:00 14,9 C 42 % 1026,6 hPa 0,0 l/m 6,4 km/h N 2,1 C 14,9 C 22,5 km/h
14.04.2015 14:00 15,7 C 42 % 1025,4 hPa 0,0 l/m 9,7 km/h N 2,8 C 14,0 C 23,3 km/h
14.04.2015 15:00 16,6 C 42 % 1024,4 hPa 0,0 l/m 9,5 km/h N 3,7 C 15,1 C 22,1 km/h
14.04.2015 16:00 16,7 C 41 % 1023,6 hPa 0,0 l/m 10,5 km/h N 3,5 C 14,8 C 22,1 km/h
14.04.2015 17:00 17,2 C 36 % 1022,9 hPa 0,0 l/m 8,8 km/h N 1,8 C 16,1 C 20,5 km/h
14.04.2015 18:00 17,4 C 35 % 1022,7 hPa 0,0 l/m 6,3 km/h N 1,8 C 17,3 C 19,7 km/h
14.04.2015 19:00 16,8 C 37 % 1022,7 hPa 0,0 l/m 3,0 km/h N 2,1 C 16,8 C 10,5 km/h
14.04.2015 20:00 14,9 C 45 % 1023,1 hPa 0,0 l/m 0,4 km/h N 3,1 C 14,9 C 4,8 km/h
14.04.2015 21:00 13,2 C 52 % 1023,3 hPa 0,0 l/m 0,1 km/h N 3,6 C 13,2 C 3,2 km/h
14.04.2015 22:00 11,8 C 60 % 1023,4 hPa 0,0 l/m 0,0 km/h N 4,1 C 11,8 C 0,4 km/h
14.04.2015 23:00 10,9 C 63 % 1023,4 hPa 0,0 l/m 0,0 km/h N 4,2 C 10,9 C 0,0 km/h
15.04.2015 00:00 9,8 C 68 % 1023,1 hPa 0,0 l/m 0,0 km/h N 4,0 C 9,8 C 0,0 km/h
15.04.2015 01:00 8,0 C 73 % 1022,6 hPa 0,0 l/m 0,1 km/h N 3,4 C 8,0 C 2,0 km/h
15.04.2015 02:00 6,9 C 78 % 1021,8 hPa 0,0 l/m 0,2 km/h N 3,4 C 6,9 C 3,6 km/h
15.04.2015 03:00 7,6 C 80 % 1021,5 hPa 0,0 l/m 0,1 km/h N 4,3 C 7,6 C 1,6 km/h
15.04.2015 04:00 10,9 C 70 % 1020,8 hPa 0,0 l/m 1,9 km/h N 5,5 C 10,9 C 10,1 km/h
15.04.2015 05:00 14,9 C 54 % 1020,1 hPa 0,0 l/m 3,6 km/h N 5,6 C 14,9 C 16,1 km/h
15.04.2015 06:00 15,1 C 53 % 1020,0 hPa 0,0 l/m 4,7 km/h N 5,5 C 15,1 C 18,9 km/h
15.04.2015 07:00 15,9 C 50 % 1020,1 hPa 0,0 l/m 5,7 km/h N 5,5 C 15,9 C 19,3 km/h
15.04.2015 08:00 17,7 C 47 % 1020,0 hPa 0,0 l/m 6,9 km/h N 6,2 C 17,2 C 21,3 km/h
15.04.2015 09:00 19,0 C 45 % 1020,0 hPa 0,0 l/m 8,9 km/h N 6,9 C 18,0 C 25,4 km/h
15.04.2015 10:00 20,1 C 45 % 1019,8 hPa 0,0 l/m 9,3 km/h N 7,6 C 19,0 C 28,6 km/h
15.04.2015 11:00 21,2 C 43 % 1019,3 hPa 0,0 l/m 9,5 km/h N 8,0 C 20,2 C 25,3 km/h
15.04.2015 12:00 21,5 C 41 % 1018,5 hPa 0,0 l/m 13,9 km/h N 7,6 C 19,3 C 31,8 km/h
15.04.2015 13:00 22,5 C 37 % 1018,0 hPa 0,0 l/m 12,4 km/h N 7,1 C 20,8 C 29,8 km/h
15.04.2015 14:00 23,0 C 37 % 1017,3 hPa 0,0 l/m 11,3 km/h N 7,3 C 21,7 C 30,6 km/h
15.04.2015 15:00 23,1 C 36 % 1016,5 hPa 0,0 l/m 10,3 km/h N 7,2 C 22,0 C 29,8 km/h
15.04.2015 16:00 23,4 C 34 % 1015,5 hPa 0,0 l/m 9,9 km/h N 6,4 C 22,5 C 29,4 km/h
15.04.2015 17:00 23,5 C 33 % 1014,8 hPa 0,0 l/m 8,8 km/h N 6,1 C 22,8 C 26,9 km/h
15.04.2015 18:00 23,0 C 31 % 1014,4 hPa 0,0 l/m 6,1 km/h N 5,0 C 22,7 C 20,9 km/h
15.04.2015 19:00 22,0 C 32 % 1014,3 hPa 0,0 l/m 2,0 km/h N 4,7 C 22,0 C 16,5 km/h
15.04.2015 20:00 20,0 C 38 % 1014,4 hPa 0,0 l/m 0,4 km/h N 5,2 C 20,0 C 5,6 km/h
15.04.2015 21:00 16,4 C 48 % 1014,6 hPa 0,0 l/m 0,1 km/h N 5,3 C 16,4 C 1,2 km/h
15.04.2015 22:00 13,0 C 58 % 1014,5 hPa 0,0 l/m 0,0 km/h N 5,0 C 13,0 C 0,4 km/h
15.04.2015 23:00 12,1 C 63 % 1014,4 hPa 0,0 l/m 0,2 km/h N 5,3 C 12,1 C 2,0 km/h
16.04.2015 00:00 11,9 C 64 % 1014,3 hPa 0,0 l/m 0,3 km/h N 5,4 C 11,9 C 2,4 km/h
16.04.2015 01:00 12,1 C 63 % 1014,1 hPa 0,0 l/m 1,2 km/h N 5,3 C 12,1 C 5,6 km/h
16.04.2015 02:00 11,3 C 63 % 1013,7 hPa 0,0 l/m 0,4 km/h N 4,6 C 11,3 C 2,8 km/h
16.04.2015 03:00 9,1 C 71 % 1013,3 hPa 0,0 l/m 0,1 km/h N 4,0 C 9,1 C 1,6 km/h
16.04.2015 04:00 7,5 C 76 % 1012,9 hPa 0,0 l/m 0,1 km/h N 3,6 C 7,5 C 1,2 km/h
16.04.2015 05:00 6,3 C 79 % 1012,3 hPa 0,0 l/m 0,0 km/h N 3,0 C 6,3 C 0,4 km/h
16.04.2015 06:00 6,3 C 82 % 1012,1 hPa 0,0 l/m 0,0 km/h N 3,5 C 6,3 C 0,8 km/h
16.04.2015 07:00 8,0 C 81 % 1012,3 hPa 0,0 l/m 0,0 km/h N 5,0 C 8,0 C 1,2 km/h
16.04.2015 08:00 15,7 C 49 % 1012,0 hPa 0,0 l/m 2,3 km/h N 4,8 C 15,7 C 7,6 km/h
16.04.2015 09:00 22,5 C 33 % 1011,8 hPa 0,0 l/m 4,3 km/h N 5,3 C 22,5 C 18,1 km/h
16.04.2015 10:00 24,2 C 29 % 1012,0 hPa 0,0 l/m 8,0 km/h N 4,9 C 23,8 C 25,8 km/h
16.04.2015 11:00 25,1 C 28 % 1012,0 hPa 0,0 l/m 9,4 km/h N 5,2 C 24,5 C 25,0 km/h
16.04.2015 12:00 25,6 C 26 % 1011,7 hPa 0,0 l/m 9,6 km/h N 4,7 C 24,9 C 29,8 km/h
16.04.2015 13:00 25,4 C 26 % 1011,5 hPa 0,0 l/m 10,4 km/h N 4,5 C 24,6 C 31,8 km/h
16.04.2015 14:00 25,3 C 26 % 1011,3 hPa 0,0 l/m 10,3 km/h N 4,5 C 24,4 C 29,8 km/h
16.04.2015 15:00 24,9 C 27 % 1010,9 hPa 0,0 l/m 11,0 km/h N 4,7 C 23,8 C 30,6 km/h
16.04.2015 16:00 24,6 C 29 % 1010,4 hPa 0,0 l/m 11,1 km/h N 5,4 C 23,6 C 27,8 km/h
16.04.2015 17:00 24,1 C 30 % 1010,2 hPa 0,0 l/m 11,3 km/h N 5,6 C 23,0 C 28,2 km/h
16.04.2015 18:00 23,5 C 33 % 1009,9 hPa 0,0 l/m 4,9 km/h N 6,4 C 23,5 C 19,7 km/h
16.04.2015 19:00 22,3 C 36 % 1009,7 hPa 0,0 l/m 4,2 km/h N 6,5 C 22,2 C 17,7 km/h
16.04.2015 20:00 21,1 C 40 % 1009,6 hPa 0,0 l/m 0,7 km/h N 6,8 C 21,1 C 6,8 km/h
16.04.2015 21:00 19,5 C 45 % 1010,0 hPa 0,0 l/m 0,6 km/h N 7,1 C 19,5 C 6,8 km/h
16.04.2015 22:00 19,3 C 45 % 1009,9 hPa 0,0 l/m 2,6 km/h N 7,1 C 19,3 C 10,1 km/h
16.04.2015 23:00 19,0 C 47 % 1009,8 hPa 0,0 l/m 0,4 km/h N 7,4 C 19,0 C 4,0 km/h
17.04.2015 00:00 16,4 C 56 % 1009,8 hPa 0,0 l/m 0,0 km/h N 7,6 C 16,4 C 0,4 km/h
17.04.2015 01:00 14,8 C 61 % 1009,7 hPa 0,0 l/m 0,0 km/h N 7,4 C 14,8 C 0,0 km/h
17.04.2015 02:00 14,7 C 60 % 1009,5 hPa 0,0 l/m 0,3 km/h N 7,0 C 14,7 C 2,8 km/h
17.04.2015 03:00 13,6 C 66 % 1009,6 hPa 0,0 l/m 0,4 km/h N 7,3 C 13,6 C 4,4 km/h
17.04.2015 04:00 13,9 C 64 % 1009,6 hPa 0,0 l/m 1,5 km/h N 7,2 C 13,9 C 5,6 km/h
17.04.2015 05:00 13,5 C 64 % 1009,5 hPa 0,0 l/m 0,1 km/h N 6,7 C 13,5 C 1,2 km/h
17.04.2015 06:00 11,6 C 72 % 1009,6 hPa 0,0 l/m 0,0 km/h N 6,7 C 11,6 C 0,8 km/h
17.04.2015 07:00 12,1 C 75 % 1010,0 hPa 0,0 l/m 0,3 km/h N 7,9 C 12,1 C 2,0 km/h
17.04.2015 08:00 13,8 C 67 % 1010,5 hPa 0,0 l/m 3,2 km/h N 7,8 C 13,8 C 10,1 km/h
17.04.2015 09:00 14,0 C 67 % 1010,9 hPa 0,0 l/m 3,3 km/h N 7,9 C 14,0 C 10,9 km/h
17.04.2015 10:00 14,0 C 66 % 1011,0 hPa 0,0 l/m 2,7 km/h N 7,8 C 14,0 C 8,9 km/h
17.04.2015 11:00 14,6 C 65 % 1010,6 hPa 0,0 l/m 2,4 km/h N 8,0 C 14,6 C 8,9 km/h
17.04.2015 12:00 15,2 C 64 % 1010,2 hPa 0,0 l/m 2,8 km/h N 8,4 C 15,2 C 8,4 km/h
17.04.2015 13:00 16,0 C 65 % 1009,5 hPa 0,0 l/m 0,8 km/h N 9,3 C 16,0 C 6,0 km/h
17.04.2015 14:00 16,3 C 67 % 1008,8 hPa 0,0 l/m 0,7 km/h N 10,2 C 16,3 C 4,8 km/h
17.04.2015 15:00 16,0 C 70 % 1008,4 hPa 0,0 l/m 1,0 km/h N 10,6 C 16,0 C 6,8 km/h
17.04.2015 16:00 14,6 C 76 % 1008,5 hPa 0,8 l/m 1,3 km/h N 10,5 C 14,6 C 8,4 km/h
17.04.2015 17:00 13,5 C 83 % 1009,2 hPa 2,9 l/m 3,0 km/h N 10,6 C 13,5 C 10,9 km/h
17.04.2015 18:00 12,7 C 83 % 1009,4 hPa 1,6 l/m 1,5 km/h N 9,8 C 12,7 C 7,6 km/h
17.04.2015 19:00 11,8 C 82 % 1010,1 hPa 4,2 l/m 4,3 km/h N 8,7 C 11,8 C 12,5 km/h
17.04.2015 20:00 10,4 C 82 % 1011,1 hPa 1,8 l/m 4,9 km/h N 7,4 C 10,4 C 16,1 km/h
17.04.2015 21:00 9,4 C 83 % 1012,0 hPa 0,0 l/m 6,1 km/h N 6,7 C 8,8 C 15,7 km/h
17.04.2015 22:00 9,2 C 83 % 1012,4 hPa 0,0 l/m 6,9 km/h N 6,5 C 8,6 C 18,5 km/h
17.04.2015 23:00 9,4 C 80 % 1013,0 hPa 0,0 l/m 9,4 km/h N 6,1 C 7,4 C 20,9 km/h
18.04.2015 00:00 9,0 C 78 % 1013,9 hPa 0,0 l/m 8,4 km/h N 5,3 C 7,5 C 22,1 km/h
18.04.2015 01:00 8,4 C 75 % 1014,8 hPa 0,0 l/m 9,9 km/h N 4,2 C 6,0 C 24,1 km/h
18.04.2015 02:00 8,0 C 71 % 1015,1 hPa 0,0 l/m 10,0 km/h N 3,1 C 5,5 C 23,7 km/h
18.04.2015 03:00 7,6 C 70 % 1015,5 hPa 0,0 l/m 10,1 km/h N 2,4 C 4,9 C 24,1 km/h
18.04.2015 04:00 7,3 C 69 % 1016,0 hPa 0,0 l/m 9,7 km/h N 1,8 C 4,8 C 23,3 km/h
18.04.2015 05:00 6,7 C 70 % 1016,5 hPa 0,0 l/m 8,9 km/h N 1,5 C 4,8 C 22,5 km/h
18.04.2015 06:00 6,1 C 71 % 1017,0 hPa 0,0 l/m 7,5 km/h N 1,2 C 5,1 C 19,7 km/h
18.04.2015 07:00 6,3 C 72 % 1017,8 hPa 0,0 l/m 8,9 km/h N 1,6 C 4,3 C 22,5 km/h
18.04.2015 08:00 7,0 C 69 % 1018,2 hPa 0,0 l/m 9,6 km/h N 1,8 C 4,5 C 24,9 km/h
18.04.2015 09:00 7,4 C 68 % 1018,3 hPa 0,0 l/m 8,5 km/h N 1,9 C 5,8 C 20,1 km/h
18.04.2015 10:00 8,2 C 66 % 1019,0 hPa 0,0 l/m 12,2 km/h N 2,2 C 4,4 C 27,8 km/h
18.04.2015 11:00 8,7 C 66 % 1019,5 hPa 0,3 l/m 10,5 km/h N 2,6 C 5,8 C 24,9 km/h
18.04.2015 12:00 9,7 C 58 % 1019,8 hPa 0,3 l/m 13,9 km/h N 1,9 C 5,2 C 28,6 km/h
18.04.2015 13:00 9,1 C 63 % 1020,1 hPa 0,0 l/m 10,6 km/h N 2,3 C 6,5 C 26,2 km/h
18.04.2015 14:00 10,3 C 59 % 1020,3 hPa 0,0 l/m 10,0 km/h N 2,7 C 8,0 C 25,4 km/h
18.04.2015 15:00 10,5 C 47 % 1020,1 hPa 0,0 l/m 12,8 km/h N -0,4 C 6,7 C 29,4 km/h
18.04.2015 16:00 9,3 C 55 % 1020,6 hPa 0,0 l/m 12,0 km/h N 0,6 C 5,9 C 28,2 km/h
18.04.2015 17:00 9,8 C 49 % 1020,8 hPa 0,0 l/m 9,7 km/h N -0,5 C 7,7 C 24,1 km/h
18.04.2015 18:00 9,3 C 50 % 1021,1 hPa 0,0 l/m 10,1 km/h N -0,7 C 6,8 C 22,5 km/h
18.04.2015 19:00 8,4 C 51 % 1021,5 hPa 0,0 l/m 7,0 km/h N -1,1 C 7,9 C 20,1 km/h
18.04.2015 20:00 7,8 C 53 % 1022,2 hPa 0,0 l/m 4,8 km/h N -1,1 C 7,8 C 13,7 km/h
18.04.2015 21:00 7,3 C 53 % 1023,0 hPa 0,0 l/m 4,3 km/h N -1,7 C 7,3 C 14,5 km/h
18.04.2015 22:00 5,9 C 58 % 1023,3 hPa 0,0 l/m 0,7 km/h N -1,8 C 5,9 C 4,8 km/h
18.04.2015 23:00 4,6 C 61 % 1023,5 hPa 0,0 l/m 0,8 km/h N -2,2 C 4,6 C 5,6 km/h
19.04.2015 00:00 3,8 C 64 % 1023,8 hPa 0,0 l/m 0,8 km/h N -2,3 C 3,8 C 4,4 km/h
19.04.2015 01:00 4,1 C 65 % 1023,7 hPa 0,0 l/m 1,3 km/h N -2,0 C 4,1 C 6,8 km/h
19.04.2015 02:00 4,1 C 65 % 1023,3 hPa 0,0 l/m 2,7 km/h N -1,9 C 4,1 C 8,9 km/h
19.04.2015 03:00 3,9 C 65 % 1022,9 hPa 0,0 l/m 1,9 km/h N -2,0 C 3,9 C 9,3 km/h
19.04.2015 04:00 3,5 C 67 % 1022,6 hPa 0,0 l/m 0,8 km/h N -2,1 C 3,5 C 5,2 km/h
19.04.2015 05:00 2,9 C 72 % 1022,3 hPa 0,0 l/m 0,1 km/h N -1,8 C 2,9 C 2,8 km/h
19.04.2015 06:00 3,3 C 71 % 1022,4 hPa 0,0 l/m 0,3 km/h N -1,4 C 3,3 C 2,8 km/h
19.04.2015 07:00 4,3 C 71 % 1022,4 hPa 0,0 l/m 0,1 km/h N -0,6 C 4,3 C 2,0 km/h
19.04.2015 08:00 5,8 C 70 % 1022,9 hPa 0,0 l/m 0,3 km/h N 0,7 C 5,8 C 3,6 km/h
19.04.2015 09:00 7,8 C 57 % 1023,0 hPa 0,0 l/m 4,3 km/h N -0,3 C 7,8 C 10,5 km/h
19.04.2015 10:00 9,4 C 52 % 1022,8 hPa 0,0 l/m 3,3 km/h N 0,1 C 9,4 C 11,3 km/h
19.04.2015 11:00 10,6 C 48 % 1022,6 hPa 0,0 l/m 3,9 km/h N 0,1 C 10,6 C 16,9 km/h
19.04.2015 12:00 11,4 C 47 % 1022,1 hPa 0,0 l/m 3,7 km/h N 0,4 C 11,4 C 14,5 km/h
19.04.2015 13:00 12,0 C 47 % 1021,3 hPa 0,0 l/m 4,2 km/h N 1,0 C 12,0 C 14,9 km/h
19.04.2015 14:00 12,6 C 48 % 1020,8 hPa 0,0 l/m 2,8 km/h N 1,9 C 12,6 C 12,5 km/h
19.04.2015 15:00 12,8 C 44 % 1020,1 hPa 0,0 l/m 3,3 km/h N 0,7 C 12,8 C 11,3 km/h
19.04.2015 16:00 12,9 C 43 % 1019,7 hPa 0,0 l/m 3,5 km/h N 0,5 C 12,9 C 14,5 km/h
19.04.2015 17:00 13,0 C 43 % 1019,7 hPa 0,0 l/m 4,5 km/h N 0,7 C 13,0 C 12,1 km/h
19.04.2015 18:00 12,9 C 42 % 1019,5 hPa 0,0 l/m 3,4 km/h N 0,3 C 12,9 C 13,7 km/h
19.04.2015 19:00 12,3 C 45 % 1019,5 hPa 0,0 l/m 0,5 km/h N 0,6 C 12,3 C 4,4 km/h
19.04.2015 20:00 9,9 C 55 % 1020,1 hPa 0,0 l/m 0,0 km/h N 1,2 C 9,9 C 0,4 km/h
19.04.2015 21:00 7,9 C 61 % 1020,3 hPa 0,0 l/m 0,3 km/h N 0,9 C 7,9 C 3,2 km/h
19.04.2015 22:00 7,1 C 63 % 1020,4 hPa 0,0 l/m 0,2 km/h N 0,6 C 7,1 C 3,2 km/h
19.04.2015 23:00 5,3 C 70 % 1020,7 hPa 0,0 l/m 0,0 km/h N 0,2 C 5,3 C 0,8 km/h
Min-Datum _ 19.04.15 16.04.15 17.04.15 - 13.04.15 - 19.04.15 18.04.15 13.04.15
_ Min-Zeit 05:15 14:30 16:00 - 00:45 - 00:15 16:15 00:45
Minimum _ 2,8 C 25 % 1008,3 hPa - 0,0 km/h - -2,6 C 1,7 C 0,0 km/h
Max-Datum _ 16.04.15 17.04.15 14.04.15 17.04.15 13.04.15 - 17.04.15 16.04.15 13.04.15
_ Max-Zeit 12:00 22:00 08:00 19:15 12:45 - 15:00 11:45 12:45
Maximum _ 25,8 C 84 % 1029,3 hPa 4,2 l/m 23,1 km/h
N
- 11,1 C 25,4 C 53,1 km/h
N
Durchschnitt _ 12,8 C 57 % 1018,9 hPa #11,7 l/m 4,8 km/h N 3,9 C 12,2 C 14,3 km/h